This is the latest recevied weather packets stored in our database for station/object W1CAT. If no packets are shown the sender has not sent any weather packets the latest 1 day(s).
| Time | Temp. | Humidity | Pressure | Rain* | Wind** | Luminosity | Snow |
|---|---|---|---|---|---|---|---|
| 1778096396 | 5.56° C | 63% | - | 6.6 mm | - | - | - |
| 1778096094 | 6.11° C | 59% | - | 7.87 mm | - | - | - |
| 1778094566 | 4.44° C | 68% | - | 1.78 mm | - | - | - |
| 1778093354 | 3.33° C | 71% | - | 1.27 mm | - | - | - |
| 1778093051 | 1.67° C | 72% | - | 0 mm | - | - | - |
| 1778092443 | 2.78° C | 68% | - | 0 mm | - | - | - |
| 1778091535 | 3.33° C | 70% | - | 0 mm | - | - | - |
| 1778090322 | 1.67° C | 75% | - | 0 mm | - | - | - |
| 1778088802 | 1.11° C | 77% | - | 0 mm | - | - | - |
| 1778088499 | 1.11° C | 77% | - | 0 mm | - | - | - |
| 1778087893 | 0.56° C | 80% | - | 0 mm | - | - | - |
| 1778087590 | 0° C | 81% | - | 0 mm | - | - | - |
| 1778087288 | 0° C | 83% | - | 0 mm | - | - | - |
| 1778085772 | -1.11° C | 84% | - | 0 mm | - | - | - |
| 1778084559 | -0.56° C | 84% | - | 0 mm | - | - | - |
| 1778078580 | -1.11° C | 90% | - | 0 mm | - | - | - |
| 1778078278 | -1.11° C | 89% | - | 0 mm | - | - | - |
| 1778077975 | -1.11° C | 88% | - | 0 mm | - | - | - |
| 1778077069 | -0.56° C | 86% | - | 0 mm | - | - | - |
| 1778076464 | 0° C | 85% | - | 0 mm | - | - | - |
| 1778076161 | 0° C | 85% | - | 0 mm | - | - | - |
| 1778075858 | 0° C | 87% | - | 0 mm | - | - | - |
| 1778075554 | 0° C | 85% | - | 0 mm | - | - | - |
| 1778073129 | -1.67° C | 90% | - | 0 mm | - | - | - |
| 1778072826 | -1.67° C | 90% | - | 0 mm | - | - | - |
* Rain latest hour (hover to see other rain measurements)
** Current wind speed in m/s (hover to see current wind gust speed)